sensor_id;sensor_type;location;lat;lon;timestamp;temperature;humidity
9393;DHT22;4736;52.508;13.422;2023-07-31T00:01:04;15.00;77.60
9393;DHT22;4736;52.508;13.422;2023-07-31T00:04:08;14.90;77.50
9393;DHT22;4736;52.508;13.422;2023-07-31T00:07:12;14.80;77.60
9393;DHT22;4736;52.508;13.422;2023-07-31T00:10:16;14.80;77.60
9393;DHT22;4736;52.508;13.422;2023-07-31T00:13:21;14.80;77.70
9393;DHT22;4736;52.508;13.422;2023-07-31T00:16:25;14.80;77.70
9393;DHT22;4736;52.508;13.422;2023-07-31T00:19:28;14.80;77.70
9393;DHT22;4736;52.508;13.422;2023-07-31T00:22:32;14.80;77.90
9393;DHT22;4736;52.508;13.422;2023-07-31T00:25:36;14.80;78.00
9393;DHT22;4736;52.508;13.422;2023-07-31T00:28:39;14.80;78.10
9393;DHT22;4736;52.508;13.422;2023-07-31T00:31:42;14.80;78.10
9393;DHT22;4736;52.508;13.422;2023-07-31T00:34:45;14.80;78.30
9393;DHT22;4736;52.508;13.422;2023-07-31T00:37:50;14.80;78.60
9393;DHT22;4736;52.508;13.422;2023-07-31T00:40:53;14.70;78.90
9393;DHT22;4736;52.508;13.422;2023-07-31T00:43:56;14.70;79.20
9393;DHT22;4736;52.508;13.422;2023-07-31T00:46:59;14.70;79.10
9393;DHT22;4736;52.508;13.422;2023-07-31T00:50:07;14.70;79.50
9393;DHT22;4736;52.508;13.422;2023-07-31T00:53:12;14.70;79.30
9393;DHT22;4736;52.508;13.422;2023-07-31T00:56:16;14.80;79.40
9393;DHT22;4736;52.508;13.422;2023-07-31T00:59:25;14.90;79.30
9393;DHT22;4736;52.508;13.422;2023-07-31T01:02:28;14.90;79.70
9393;DHT22;4736;52.508;13.422;2023-07-31T01:05:39;14.90;79.40
9393;DHT22;4736;52.508;13.422;2023-07-31T01:08:51;14.90;79.50
9393;DHT22;4736;52.508;13.422;2023-07-31T01:12:01;15.00;79.30
9393;DHT22;4736;52.508;13.422;2023-07-31T01:15:05;15.00;79.40
9393;DHT22;4736;52.508;13.422;2023-07-31T01:18:12;15.00;79.40
9393;DHT22;4736;52.508;13.422;2023-07-31T01:21:25;15.00;79.60
9393;DHT22;4736;52.508;13.422;2023-07-31T01:24:42;15.00;79.80
9393;DHT22;4736;52.508;13.422;2023-07-31T01:27:59;15.00;79.70
9393;DHT22;4736;52.508;13.422;2023-07-31T01:31:07;15.00;79.50
9393;DHT22;4736;52.508;13.422;2023-07-31T01:34:13;15.00;79.60
9393;DHT22;4736;52.508;13.422;2023-07-31T01:37:17;15.00;79.60
9393;DHT22;4736;52.508;13.422;2023-07-31T01:40:20;15.00;79.50
9393;DHT22;4736;52.508;13.422;2023-07-31T01:43:25;15.10;79.50
9393;DHT22;4736;52.508;13.422;2023-07-31T01:46:28;15.10;79.60
9393;DHT22;4736;52.508;13.422;2023-07-31T01:49:31;15.20;79.40
9393;DHT22;4736;52.508;13.422;2023-07-31T01:52:34;15.20;79.30
9393;DHT22;4736;52.508;13.422;2023-07-31T01:55:37;15.20;79.30
9393;DHT22;4736;52.508;13.422;2023-07-31T01:58:42;15.20;79.20
9393;DHT22;4736;52.508;13.422;2023-07-31T02:01:46;15.20;79.20
9393;DHT22;4736;52.508;13.422;2023-07-31T02:04:49;15.30;79.10
9393;DHT22;4736;52.508;13.422;2023-07-31T02:07:52;15.30;79.00
9393;DHT22;4736;52.508;13.422;2023-07-31T02:10:55;15.30;79.00
9393;DHT22;4736;52.508;13.422;2023-07-31T02:14:00;15.30;79.10
9393;DHT22;4736;52.508;13.422;2023-07-31T02:17:03;15.30;79.10
9393;DHT22;4736;52.508;13.422;2023-07-31T02:20:19;15.30;79.30
9393;DHT22;4736;52.508;13.422;2023-07-31T02:23:23;15.30;79.20
9393;DHT22;4736;52.508;13.422;2023-07-31T02:26:26;15.30;79.10
9393;DHT22;4736;52.508;13.422;2023-07-31T02:29:31;15.30;79.20
9393;DHT22;4736;52.508;13.422;2023-07-31T02:32:34;15.30;79.20
9393;DHT22;4736;52.508;13.422;2023-07-31T02:35:37;15.40;79.10
9393;DHT22;4736;52.508;13.422;2023-07-31T02:38:40;15.40;79.10
9393;DHT22;4736;52.508;13.422;2023-07-31T02:41:43;15.40;79.20
9393;DHT22;4736;52.508;13.422;2023-07-31T02:44:48;15.40;79.00
9393;DHT22;4736;52.508;13.422;2023-07-31T02:47:53;15.40;79.00
9393;DHT22;4736;52.508;13.422;2023-07-31T02:50:56;15.50;78.90
9393;DHT22;4736;52.508;13.422;2023-07-31T02:53:59;15.50;78.90
9393;DHT22;4736;52.508;13.422;2023-07-31T02:57:03;15.50;78.80
9393;DHT22;4736;52.508;13.422;2023-07-31T03:00:10;15.50;78.80
9393;DHT22;4736;52.508;13.422;2023-07-31T03:03:13;15.50;78.70
9393;DHT22;4736;52.508;13.422;2023-07-31T03:06:16;15.50;78.70
9393;DHT22;4736;52.508;13.422;2023-07-31T03:09:20;15.50;79.00
9393;DHT22;4736;52.508;13.422;2023-07-31T03:12:23;15.40;79.20
9393;DHT22;4736;52.508;13.422;2023-07-31T03:15:28;15.40;79.00
9393;DHT22;4736;52.508;13.422;2023-07-31T03:18:31;15.50;79.30
9393;DHT22;4736;52.508;13.422;2023-07-31T03:21:34;15.30;79.40
9393;DHT22;4736;52.508;13.422;2023-07-31T03:24:37;15.30;79.70
9393;DHT22;4736;52.508;13.422;2023-07-31T03:27:41;15.30;79.70
9393;DHT22;4736;52.508;13.422;2023-07-31T03:30:45;15.30;79.80
9393;DHT22;4736;52.508;13.422;2023-07-31T03:33:48;15.20;79.90
9393;DHT22;4736;52.508;13.422;2023-07-31T03:36:52;15.30;79.90
9393;DHT22;4736;52.508;13.422;2023-07-31T03:39:55;15.20;80.00
9393;DHT22;4736;52.508;13.422;2023-07-31T03:42:58;15.20;80.30
9393;DHT22;4736;52.508;13.422;2023-07-31T03:46:03;15.10;80.60
9393;DHT22;4736;52.508;13.422;2023-07-31T03:49:06;15.00;80.80
9393;DHT22;4736;52.508;13.422;2023-07-31T03:52:09;15.00;80.70
9393;DHT22;4736;52.508;13.422;2023-07-31T03:55:13;15.10;80.80
9393;DHT22;4736;52.508;13.422;2023-07-31T03:58:16;15.20;80.70
9393;DHT22;4736;52.508;13.422;2023-07-31T04:01:21;15.20;80.60
9393;DHT22;4736;52.508;13.422;2023-07-31T04:04:24;15.20;80.70
9393;DHT22;4736;52.508;13.422;2023-07-31T04:07:27;15.20;80.70
9393;DHT22;4736;52.508;13.422;2023-07-31T04:10:30;15.20;80.40
9393;DHT22;4736;52.508;13.422;2023-07-31T04:13:35;15.20;80.40
9393;DHT22;4736;52.508;13.422;2023-07-31T04:16:39;15.20;80.40
9393;DHT22;4736;52.508;13.422;2023-07-31T04:19:46;15.30;80.40
9393;DHT22;4736;52.508;13.422;2023-07-31T04:22:50;15.40;80.20
9393;DHT22;4736;52.508;13.422;2023-07-31T04:25:53;15.40;80.20
9393;DHT22;4736;52.508;13.422;2023-07-31T04:28:56;15.30;80.00
9393;DHT22;4736;52.508;13.422;2023-07-31T04:32:00;15.30;80.20
9393;DHT22;4736;52.508;13.422;2023-07-31T04:35:04;15.40;80.30
9393;DHT22;4736;52.508;13.422;2023-07-31T04:38:07;15.30;79.90
9393;DHT22;4736;52.508;13.422;2023-07-31T04:41:10;15.30;80.20
9393;DHT22;4736;52.508;13.422;2023-07-31T04:44:14;15.30;80.30
9393;DHT22;4736;52.508;13.422;2023-07-31T04:47:18;15.30;80.20
9393;DHT22;4736;52.508;13.422;2023-07-31T04:50:21;15.40;80.20
9393;DHT22;4736;52.508;13.422;2023-07-31T04:53:24;15.30;80.10
9393;DHT22;4736;52.508;13.422;2023-07-31T04:56:28;15.40;80.50
9393;DHT22;4736;52.508;13.422;2023-07-31T04:59:31;15.40;80.50
9393;DHT22;4736;52.508;13.422;2023-07-31T05:02:35;15.50;80.50
9393;DHT22;4736;52.508;13.422;2023-07-31T05:05:38;15.40;80.50
9393;DHT22;4736;52.508;13.422;2023-07-31T05:08:42;15.40;80.80
9393;DHT22;4736;52.508;13.422;2023-07-31T05:11:45;15.40;80.70
9393;DHT22;4736;52.508;13.422;2023-07-31T05:14:48;15.50;80.80
9393;DHT22;4736;52.508;13.422;2023-07-31T05:17:53;15.60;80.70
9393;DHT22;4736;52.508;13.422;2023-07-31T05:20:56;15.70;80.50
9393;DHT22;4736;52.508;13.422;2023-07-31T05:23:59;15.70;80.40
9393;DHT22;4736;52.508;13.422;2023-07-31T05:27:03;15.90;80.20
9393;DHT22;4736;52.508;13.422;2023-07-31T05:30:08;15.80;80.00
9393;DHT22;4736;52.508;13.422;2023-07-31T05:33:13;15.80;80.20
9393;DHT22;4736;52.508;13.422;2023-07-31T05:36:16;15.90;80.00
9393;DHT22;4736;52.508;13.422;2023-07-31T05:39:19;16.00;79.90
9393;DHT22;4736;52.508;13.422;2023-07-31T05:42:23;16.10;79.60
9393;DHT22;4736;52.508;13.422;2023-07-31T05:45:26;16.20;78.90
9393;DHT22;4736;52.508;13.422;2023-07-31T05:48:30;16.20;79.00
9393;DHT22;4736;52.508;13.422;2023-07-31T05:51:33;16.00;79.00
9393;DHT22;4736;52.508;13.422;2023-07-31T05:54:36;15.90;79.10
9393;DHT22;4736;52.508;13.422;2023-07-31T05:57:39;15.90;79.70
9393;DHT22;4736;52.508;13.422;2023-07-31T06:00:43;15.90;79.80
9393;DHT22;4736;52.508;13.422;2023-07-31T06:03:47;15.90;79.80
9393;DHT22;4736;52.508;13.422;2023-07-31T06:11:13;15.80;80.00
9393;DHT22;4736;52.508;13.422;2023-07-31T06:14:16;16.00;80.00
9393;DHT22;4736;52.508;13.422;2023-07-31T06:17:19;16.00;79.70
9393;DHT22;4736;52.508;13.422;2023-07-31T06:20:24;16.10;79.50
9393;DHT22;4736;52.508;13.422;2023-07-31T06:23:28;16.10;79.20
9393;DHT22;4736;52.508;13.422;2023-07-31T06:26:31;16.20;79.30
9393;DHT22;4736;52.508;13.422;2023-07-31T06:29:34;16.10;79.40
9393;DHT22;4736;52.508;13.422;2023-07-31T06:32:37;16.20;79.60
9393;DHT22;4736;52.508;13.422;2023-07-31T06:35:43;16.30;79.40
9393;DHT22;4736;52.508;13.422;2023-07-31T06:38:47;16.40;79.50
9393;DHT22;4736;52.508;13.422;2023-07-31T06:41:52;16.40;79.60
9393;DHT22;4736;52.508;13.422;2023-07-31T06:44:56;16.40;79.40
9393;DHT22;4736;52.508;13.422;2023-07-31T06:48:03;16.50;79.40
9393;DHT22;4736;52.508;13.422;2023-07-31T06:51:08;16.50;78.70
9393;DHT22;4736;52.508;13.422;2023-07-31T06:54:11;16.50;78.60
9393;DHT22;4736;52.508;13.422;2023-07-31T06:57:14;16.60;78.70
9393;DHT22;4736;52.508;13.422;2023-07-31T07:00:18;16.70;78.90
9393;DHT22;4736;52.508;13.422;2023-07-31T07:03:21;16.80;78.70
9393;DHT22;4736;52.508;13.422;2023-07-31T07:06:26;16.80;77.90
9393;DHT22;4736;52.508;13.422;2023-07-31T07:09:29;16.80;77.70
9393;DHT22;4736;52.508;13.422;2023-07-31T07:12:32;16.90;77.20
9393;DHT22;4736;52.508;13.422;2023-07-31T07:15:36;16.90;77.30
9393;DHT22;4736;52.508;13.422;2023-07-31T07:18:39;16.80;77.30
9393;DHT22;4736;52.508;13.422;2023-07-31T07:22:04;16.60;77.70
9393;DHT22;4736;52.508;13.422;2023-07-31T07:25:08;16.50;78.20
9393;DHT22;4736;52.508;13.422;2023-07-31T07:28:11;16.60;78.10
9393;DHT22;4736;52.508;13.422;2023-07-31T07:31:15;16.70;77.90
9393;DHT22;4736;52.508;13.422;2023-07-31T07:34:18;16.90;77.50
9393;DHT22;4736;52.508;13.422;2023-07-31T07:37:23;17.00;77.20
9393;DHT22;4736;52.508;13.422;2023-07-31T07:40:26;16.90;77.90
9393;DHT22;4736;52.508;13.422;2023-07-31T07:43:29;16.90;77.80
9393;DHT22;4736;52.508;13.422;2023-07-31T07:46:32;16.90;78.10
9393;DHT22;4736;52.508;13.422;2023-07-31T07:49:35;17.00;78.40
9393;DHT22;4736;52.508;13.422;2023-07-31T07:52:40;17.20;77.40
9393;DHT22;4736;52.508;13.422;2023-07-31T07:55:43;17.40;76.80
9393;DHT22;4736;52.508;13.422;2023-07-31T07:58:48;17.40;76.60
9393;DHT22;4736;52.508;13.422;2023-07-31T08:01:51;17.50;76.20
9393;DHT22;4736;52.508;13.422;2023-07-31T08:04:55;17.50;76.00
9393;DHT22;4736;52.508;13.422;2023-07-31T08:08:00;17.30;76.50
9393;DHT22;4736;52.508;13.422;2023-07-31T08:11:03;17.40;76.60
9393;DHT22;4736;52.508;13.422;2023-07-31T08:14:06;17.50;76.30
9393;DHT22;4736;52.508;13.422;2023-07-31T08:17:09;17.30;76.50
9393;DHT22;4736;52.508;13.422;2023-07-31T08:20:13;17.40;77.20
9393;DHT22;4736;52.508;13.422;2023-07-31T08:23:17;17.20;77.40
9393;DHT22;4736;52.508;13.422;2023-07-31T08:26:21;17.20;77.50
9393;DHT22;4736;52.508;13.422;2023-07-31T08:29:25;17.20;77.40
9393;DHT22;4736;52.508;13.422;2023-07-31T08:32:28;17.40;77.40
9393;DHT22;4736;52.508;13.422;2023-07-31T08:35:31;17.30;77.30
9393;DHT22;4736;52.508;13.422;2023-07-31T08:38:36;17.40;77.30
9393;DHT22;4736;52.508;13.422;2023-07-31T08:41:39;17.20;78.30
9393;DHT22;4736;52.508;13.422;2023-07-31T08:44:43;17.20;78.30
9393;DHT22;4736;52.508;13.422;2023-07-31T08:47:48;17.00;77.80
9393;DHT22;4736;52.508;13.422;2023-07-31T08:50:52;17.10;78.70
9393;DHT22;4736;52.508;13.422;2023-07-31T08:53:57;17.20;78.40
9393;DHT22;4736;52.508;13.422;2023-07-31T08:57:00;17.00;78.10
9393;DHT22;4736;52.508;13.422;2023-07-31T09:00:06;17.20;78.20
9393;DHT22;4736;52.508;13.422;2023-07-31T09:03:14;17.30;77.60
9393;DHT22;4736;52.508;13.422;2023-07-31T09:06:18;17.40;77.30
9393;DHT22;4736;52.508;13.422;2023-07-31T09:09:26;17.20;77.30
9393;DHT22;4736;52.508;13.422;2023-07-31T09:12:29;17.40;77.50
9393;DHT22;4736;52.508;13.422;2023-07-31T09:15:34;17.60;77.00
9393;DHT22;4736;52.508;13.422;2023-07-31T09:18:53;17.80;76.20
9393;DHT22;4736;52.508;13.422;2023-07-31T09:21:56;18.00;76.10
9393;DHT22;4736;52.508;13.422;2023-07-31T09:25:14;18.00;75.80
9393;DHT22;4736;52.508;13.422;2023-07-31T09:28:18;17.80;76.00
9393;DHT22;4736;52.508;13.422;2023-07-31T09:31:32;17.50;76.90
9393;DHT22;4736;52.508;13.422;2023-07-31T09:34:37;17.50;76.80
9393;DHT22;4736;52.508;13.422;2023-07-31T09:37:41;17.40;77.00
9393;DHT22;4736;52.508;13.422;2023-07-31T09:40:47;17.30;77.80
9393;DHT22;4736;52.508;13.422;2023-07-31T09:43:53;17.00;78.70
9393;DHT22;4736;52.508;13.422;2023-07-31T09:46:56;16.90;79.00
9393;DHT22;4736;52.508;13.422;2023-07-31T09:50:00;16.90;79.30
9393;DHT22;4736;52.508;13.422;2023-07-31T09:53:03;16.90;79.40
9393;DHT22;4736;52.508;13.422;2023-07-31T09:56:07;17.00;79.80
9393;DHT22;4736;52.508;13.422;2023-07-31T09:59:12;17.10;78.90
9393;DHT22;4736;52.508;13.422;2023-07-31T10:02:21;17.20;78.30
9393;DHT22;4736;52.508;13.422;2023-07-31T10:05:31;17.40;78.10
9393;DHT22;4736;52.508;13.422;2023-07-31T10:08:35;17.40;78.00
9393;DHT22;4736;52.508;13.422;2023-07-31T10:11:43;17.50;77.60
9393;DHT22;4736;52.508;13.422;2023-07-31T10:14:52;17.60;76.90
9393;DHT22;4736;52.508;13.422;2023-07-31T10:17:58;18.00;76.90
9393;DHT22;4736;52.508;13.422;2023-07-31T10:21:02;18.00;76.00
9393;DHT22;4736;52.508;13.422;2023-07-31T10:24:06;18.00;75.30
9393;DHT22;4736;52.508;13.422;2023-07-31T10:27:12;18.00;76.00
9393;DHT22;4736;52.508;13.422;2023-07-31T10:30:16;17.80;76.50
9393;DHT22;4736;52.508;13.422;2023-07-31T10:33:21;17.60;76.70
9393;DHT22;4736;52.508;13.422;2023-07-31T10:36:25;17.40;78.30
9393;DHT22;4736;52.508;13.422;2023-07-31T10:39:35;17.50;78.50
9393;DHT22;4736;52.508;13.422;2023-07-31T10:42:47;17.80;77.50
9393;DHT22;4736;52.508;13.422;2023-07-31T10:45:50;18.00;77.60
9393;DHT22;4736;52.508;13.422;2023-07-31T10:48:58;18.30;76.50
9393;DHT22;4736;52.508;13.422;2023-07-31T10:52:03;18.60;76.10
9393;DHT22;4736;52.508;13.422;2023-07-31T10:55:25;19.10;74.50
9393;DHT22;4736;52.508;13.422;2023-07-31T10:58:30;19.60;72.60
9393;DHT22;4736;52.508;13.422;2023-07-31T11:01:55;19.60;72.40
9393;DHT22;4736;52.508;13.422;2023-07-31T11:05:09;19.70;71.70
9393;DHT22;4736;52.508;13.422;2023-07-31T11:08:15;20.00;72.30
9393;DHT22;4736;52.508;13.422;2023-07-31T11:11:20;20.10;70.10
9393;DHT22;4736;52.508;13.422;2023-07-31T11:14:25;20.10;70.40
9393;DHT22;4736;52.508;13.422;2023-07-31T11:17:28;20.10;69.40
9393;DHT22;4736;52.508;13.422;2023-07-31T11:20:32;19.70;69.70
9393;DHT22;4736;52.508;13.422;2023-07-31T11:23:37;19.50;70.10
9393;DHT22;4736;52.508;13.422;2023-07-31T11:26:49;19.50;69.80
9393;DHT22;4736;52.508;13.422;2023-07-31T11:29:53;19.70;69.50
9393;DHT22;4736;52.508;13.422;2023-07-31T11:33:09;19.70;69.60
9393;DHT22;4736;52.508;13.422;2023-07-31T11:36:15;19.70;68.10
9393;DHT22;4736;52.508;13.422;2023-07-31T11:39:19;19.80;68.80
9393;DHT22;4736;52.508;13.422;2023-07-31T11:42:22;20.00;68.40
9393;DHT22;4736;52.508;13.422;2023-07-31T11:45:27;19.90;67.20
9393;DHT22;4736;52.508;13.422;2023-07-31T11:48:32;19.90;67.60
9393;DHT22;4736;52.508;13.422;2023-07-31T11:51:37;19.90;67.80
9393;DHT22;4736;52.508;13.422;2023-07-31T11:54:40;20.00;66.60
9393;DHT22;4736;52.508;13.422;2023-07-31T11:57:44;20.00;66.10
9393;DHT22;4736;52.508;13.422;2023-07-31T12:00:50;20.00;66.00
9393;DHT22;4736;52.508;13.422;2023-07-31T12:03:53;19.90;66.50
9393;DHT22;4736;52.508;13.422;2023-07-31T12:06:56;19.90;67.00
9393;DHT22;4736;52.508;13.422;2023-07-31T12:10:03;19.90;67.10
9393;DHT22;4736;52.508;13.422;2023-07-31T12:13:08;19.60;67.50
9393;DHT22;4736;52.508;13.422;2023-07-31T12:16:16;19.70;67.90
9393;DHT22;4736;52.508;13.422;2023-07-31T12:19:21;19.90;68.00
9393;DHT22;4736;52.508;13.422;2023-07-31T12:22:26;20.00;66.50
9393;DHT22;4736;52.508;13.422;2023-07-31T12:25:30;20.10;66.30
9393;DHT22;4736;52.508;13.422;2023-07-31T12:28:38;20.30;66.10
9393;DHT22;4736;52.508;13.422;2023-07-31T12:31:42;20.50;65.90
9393;DHT22;4736;52.508;13.422;2023-07-31T12:34:45;20.40;64.40
9393;DHT22;4736;52.508;13.422;2023-07-31T12:37:48;20.20;64.90
9393;DHT22;4736;52.508;13.422;2023-07-31T12:40:52;20.20;65.20
9393;DHT22;4736;52.508;13.422;2023-07-31T12:43:55;20.30;64.50
9393;DHT22;4736;52.508;13.422;2023-07-31T12:46:59;20.60;64.60
9393;DHT22;4736;52.508;13.422;2023-07-31T12:50:05;20.90;64.70
9393;DHT22;4736;52.508;13.422;2023-07-31T12:53:08;20.90;64.70
9393;DHT22;4736;52.508;13.422;2023-07-31T12:56:11;21.10;64.30
9393;DHT22;4736;52.508;13.422;2023-07-31T12:59:14;20.80;64.50
9393;DHT22;4736;52.508;13.422;2023-07-31T13:02:19;20.50;65.20
9393;DHT22;4736;52.508;13.422;2023-07-31T13:05:25;20.50;65.30
9393;DHT22;4736;52.508;13.422;2023-07-31T13:08:28;20.50;65.00
9393;DHT22;4736;52.508;13.422;2023-07-31T13:11:32;20.40;65.30
9393;DHT22;4736;52.508;13.422;2023-07-31T13:14:35;20.10;65.40
9393;DHT22;4736;52.508;13.422;2023-07-31T13:17:40;20.10;65.90
9393;DHT22;4736;52.508;13.422;2023-07-31T13:20:43;20.10;65.50
9393;DHT22;4736;52.508;13.422;2023-07-31T13:23:46;20.10;65.80
9393;DHT22;4736;52.508;13.422;2023-07-31T13:26:50;20.30;66.00
9393;DHT22;4736;52.508;13.422;2023-07-31T13:29:53;20.20;66.00
9393;DHT22;4736;52.508;13.422;2023-07-31T13:32:58;20.10;66.20
9393;DHT22;4736;52.508;13.422;2023-07-31T13:36:01;20.30;66.10
9393;DHT22;4736;52.508;13.422;2023-07-31T13:39:04;20.30;66.10
9393;DHT22;4736;52.508;13.422;2023-07-31T13:42:08;20.50;66.20
9393;DHT22;4736;52.508;13.422;2023-07-31T13:45:13;20.70;65.30
9393;DHT22;4736;52.508;13.422;2023-07-31T13:48:18;20.90;64.70
9393;DHT22;4736;52.508;13.422;2023-07-31T13:51:21;21.10;64.60
9393;DHT22;4736;52.508;13.422;2023-07-31T13:54:25;21.30;64.40
9393;DHT22;4736;52.508;13.422;2023-07-31T13:57:32;21.10;64.30
9393;DHT22;4736;52.508;13.422;2023-07-31T14:00:35;21.40;64.00
9393;DHT22;4736;52.508;13.422;2023-07-31T14:03:39;21.30;64.50
9393;DHT22;4736;52.508;13.422;2023-07-31T14:06:45;21.20;63.90
9393;DHT22;4736;52.508;13.422;2023-07-31T14:09:49;21.00;64.40
9393;DHT22;4736;52.508;13.422;2023-07-31T14:12:53;20.90;64.40
9393;DHT22;4736;52.508;13.422;2023-07-31T14:15:57;21.00;64.50
9393;DHT22;4736;52.508;13.422;2023-07-31T14:19:02;21.10;64.00
9393;DHT22;4736;52.508;13.422;2023-07-31T14:22:05;20.90;64.80
9393;DHT22;4736;52.508;13.422;2023-07-31T14:25:12;21.00;64.30
9393;DHT22;4736;52.508;13.422;2023-07-31T14:28:15;20.90;65.00
9393;DHT22;4736;52.508;13.422;2023-07-31T14:31:19;20.90;65.30
9393;DHT22;4736;52.508;13.422;2023-07-31T14:34:23;21.00;65.50
9393;DHT22;4736;52.508;13.422;2023-07-31T14:37:36;21.10;64.60
9393;DHT22;4736;52.508;13.422;2023-07-31T14:40:41;21.10;64.00
9393;DHT22;4736;52.508;13.422;2023-07-31T14:43:44;21.20;64.20
9393;DHT22;4736;52.508;13.422;2023-07-31T14:46:47;21.30;63.90
9393;DHT22;4736;52.508;13.422;2023-07-31T14:49:52;21.30;63.00
9393;DHT22;4736;52.508;13.422;2023-07-31T14:52:55;21.10;63.20
9393;DHT22;4736;52.508;13.422;2023-07-31T14:55:58;21.20;62.90
9393;DHT22;4736;52.508;13.422;2023-07-31T14:59:03;21.10;63.00
9393;DHT22;4736;52.508;13.422;2023-07-31T15:02:06;21.10;63.10
9393;DHT22;4736;52.508;13.422;2023-07-31T15:05:12;21.10;62.90
9393;DHT22;4736;52.508;13.422;2023-07-31T15:08:15;21.10;63.30
9393;DHT22;4736;52.508;13.422;2023-07-31T15:11:18;21.10;63.50
9393;DHT22;4736;52.508;13.422;2023-07-31T15:14:23;21.10;63.10
9393;DHT22;4736;52.508;13.422;2023-07-31T15:17:26;20.90;63.60
9393;DHT22;4736;52.508;13.422;2023-07-31T15:20:33;20.90;64.10
9393;DHT22;4736;52.508;13.422;2023-07-31T15:23:36;20.90;64.00
9393;DHT22;4736;52.508;13.422;2023-07-31T15:26:40;20.80;64.80
9393;DHT22;4736;52.508;13.422;2023-07-31T15:29:45;20.70;65.60
9393;DHT22;4736;52.508;13.422;2023-07-31T15:32:48;20.70;66.00
9393;DHT22;4736;52.508;13.422;2023-07-31T15:35:53;20.70;66.10
9393;DHT22;4736;52.508;13.422;2023-07-31T15:38:57;20.70;65.60
9393;DHT22;4736;52.508;13.422;2023-07-31T15:42:00;20.60;65.80
9393;DHT22;4736;52.508;13.422;2023-07-31T15:45:05;20.60;65.80
9393;DHT22;4736;52.508;13.422;2023-07-31T15:48:08;20.60;66.00
9393;DHT22;4736;52.508;13.422;2023-07-31T15:51:14;20.80;66.60
9393;DHT22;4736;52.508;13.422;2023-07-31T15:54:17;20.90;66.70
9393;DHT22;4736;52.508;13.422;2023-07-31T15:57:21;20.80;66.50
9393;DHT22;4736;52.508;13.422;2023-07-31T16:00:24;20.70;66.30
9393;DHT22;4736;52.508;13.422;2023-07-31T16:03:27;20.80;66.70
9393;DHT22;4736;52.508;13.422;2023-07-31T16:06:32;20.60;66.60
9393;DHT22;4736;52.508;13.422;2023-07-31T16:09:37;20.60;67.10
9393;DHT22;4736;52.508;13.422;2023-07-31T16:12:40;20.50;67.50
9393;DHT22;4736;52.508;13.422;2023-07-31T16:15:44;20.60;67.60
9393;DHT22;4736;52.508;13.422;2023-07-31T16:18:47;20.60;67.10
9393;DHT22;4736;52.508;13.422;2023-07-31T16:21:51;20.60;66.30
9393;DHT22;4736;52.508;13.422;2023-07-31T16:24:54;20.60;66.50
9393;DHT22;4736;52.508;13.422;2023-07-31T16:27:59;20.60;65.80
9393;DHT22;4736;52.508;13.422;2023-07-31T16:31:02;20.60;65.00
9393;DHT22;4736;52.508;13.422;2023-07-31T16:34:05;20.70;64.70
9393;DHT22;4736;52.508;13.422;2023-07-31T16:37:09;20.60;64.10
9393;DHT22;4736;52.508;13.422;2023-07-31T16:40:13;20.60;64.30
9393;DHT22;4736;52.508;13.422;2023-07-31T16:43:16;20.60;64.60
9393;DHT22;4736;52.508;13.422;2023-07-31T16:46:19;20.50;64.40
9393;DHT22;4736;52.508;13.422;2023-07-31T16:49:22;20.60;64.60
9393;DHT22;4736;52.508;13.422;2023-07-31T16:52:27;20.60;64.30
9393;DHT22;4736;52.508;13.422;2023-07-31T16:55:31;20.50;64.60
9393;DHT22;4736;52.508;13.422;2023-07-31T16:58:38;20.60;64.50
9393;DHT22;4736;52.508;13.422;2023-07-31T17:01:41;20.70;64.50
9393;DHT22;4736;52.508;13.422;2023-07-31T17:04:45;20.70;64.40
9393;DHT22;4736;52.508;13.422;2023-07-31T17:07:50;20.70;64.30
9393;DHT22;4736;52.508;13.422;2023-07-31T17:10:53;20.70;64.10
9393;DHT22;4736;52.508;13.422;2023-07-31T17:13:56;20.70;64.30
9393;DHT22;4736;52.508;13.422;2023-07-31T17:16:59;20.70;64.20
9393;DHT22;4736;52.508;13.422;2023-07-31T17:20:02;20.70;64.80
9393;DHT22;4736;52.508;13.422;2023-07-31T17:23:07;20.60;64.70
9393;DHT22;4736;52.508;13.422;2023-07-31T17:26:10;20.70;64.80
9393;DHT22;4736;52.508;13.422;2023-07-31T17:29:15;20.60;64.70
9393;DHT22;4736;52.508;13.422;2023-07-31T17:32:18;20.60;65.00
9393;DHT22;4736;52.508;13.422;2023-07-31T17:35:25;20.50;65.10
9393;DHT22;4736;52.508;13.422;2023-07-31T17:38:30;20.50;65.40
9393;DHT22;4736;52.508;13.422;2023-07-31T17:41:34;20.30;67.70
9393;DHT22;4736;52.508;13.422;2023-07-31T17:44:37;20.00;70.00
9393;DHT22;4736;52.508;13.422;2023-07-31T17:47:40;19.70;70.50
9393;DHT22;4736;52.508;13.422;2023-07-31T17:50:49;19.60;71.00
9393;DHT22;4736;52.508;13.422;2023-07-31T17:53:53;19.50;71.80
9393;DHT22;4736;52.508;13.422;2023-07-31T17:56:56;19.40;71.70
9393;DHT22;4736;52.508;13.422;2023-07-31T18:00:00;19.20;71.90
9393;DHT22;4736;52.508;13.422;2023-07-31T18:03:03;19.10;72.50
9393;DHT22;4736;52.508;13.422;2023-07-31T18:06:08;19.20;72.70
9393;DHT22;4736;52.508;13.422;2023-07-31T18:09:12;19.10;72.60
9393;DHT22;4736;52.508;13.422;2023-07-31T18:12:15;19.10;72.70
9393;DHT22;4736;52.508;13.422;2023-07-31T18:15:19;19.10;72.80
9393;DHT22;4736;52.508;13.422;2023-07-31T18:18:23;19.10;73.00
9393;DHT22;4736;52.508;13.422;2023-07-31T18:21:28;19.10;72.90
9393;DHT22;4736;52.508;13.422;2023-07-31T18:24:35;19.10;72.50
9393;DHT22;4736;52.508;13.422;2023-07-31T18:27:40;19.00;72.50
9393;DHT22;4736;52.508;13.422;2023-07-31T18:30:43;19.00;72.50
9393;DHT22;4736;52.508;13.422;2023-07-31T18:33:46;19.00;72.20
9393;DHT22;4736;52.508;13.422;2023-07-31T18:36:49;19.00;72.00
9393;DHT22;4736;52.508;13.422;2023-07-31T18:39:54;19.00;71.50
9393;DHT22;4736;52.508;13.422;2023-07-31T18:42:57;19.00;71.60
9393;DHT22;4736;52.508;13.422;2023-07-31T18:46:00;19.00;71.10
9393;DHT22;4736;52.508;13.422;2023-07-31T18:49:04;19.10;70.60
9393;DHT22;4736;52.508;13.422;2023-07-31T18:52:07;19.20;69.90
9393;DHT22;4736;52.508;13.422;2023-07-31T18:55:12;19.20;70.00
9393;DHT22;4736;52.508;13.422;2023-07-31T18:58:15;19.20;69.80
9393;DHT22;4736;52.508;13.422;2023-07-31T19:01:18;19.30;69.50
9393;DHT22;4736;52.508;13.422;2023-07-31T19:04:21;19.20;69.70
9393;DHT22;4736;52.508;13.422;2023-07-31T19:07:24;19.20;69.40
9393;DHT22;4736;52.508;13.422;2023-07-31T19:10:29;19.20;69.50
9393;DHT22;4736;52.508;13.422;2023-07-31T19:13:32;19.10;69.80
9393;DHT22;4736;52.508;13.422;2023-07-31T19:16:35;19.10;69.90
9393;DHT22;4736;52.508;13.422;2023-07-31T19:19:39;19.00;70.20
9393;DHT22;4736;52.508;13.422;2023-07-31T19:22:42;18.90;70.40
9393;DHT22;4736;52.508;13.422;2023-07-31T19:25:47;18.90;70.40
9393;DHT22;4736;52.508;13.422;2023-07-31T19:28:50;18.90;70.40
9393;DHT22;4736;52.508;13.422;2023-07-31T19:31:53;18.90;70.70
9393;DHT22;4736;52.508;13.422;2023-07-31T19:34:56;18.90;70.60
9393;DHT22;4736;52.508;13.422;2023-07-31T19:37:59;18.90;70.40
9393;DHT22;4736;52.508;13.422;2023-07-31T19:41:04;18.90;70.50
9393;DHT22;4736;52.508;13.422;2023-07-31T19:44:08;18.90;70.60
9393;DHT22;4736;52.508;13.422;2023-07-31T19:47:12;18.90;70.60